createdAt,value
2023-04-03T04:40:42.755Z,9.04
2023-04-03T04:43:57.263Z,9.04
2023-04-03T04:47:11.617Z,8.39
2023-04-03T04:50:26.975Z,8.37
2023-04-03T04:53:42.907Z,8.53
2023-04-03T04:56:59.116Z,8.41
2023-04-03T05:00:14.933Z,8.40
2023-04-03T05:03:29.222Z,8.41
2023-04-03T05:06:43.576Z,8.58
2023-04-03T05:09:57.821Z,8.48
2023-04-03T05:13:13.435Z,8.21
2023-04-03T05:16:27.840Z,8.44
2023-04-03T05:19:42.102Z,8.39
2023-04-03T05:22:56.442Z,8.42
2023-04-03T05:26:19.262Z,8.63
2023-04-03T05:29:34.989Z,8.80
2023-04-03T05:36:18.999Z,9.02
2023-04-03T05:39:44.915Z,9.12
2023-04-03T05:43:21.881Z,9.68
2023-04-03T05:47:08.297Z,9.66
2023-04-03T05:50:38.033Z,9.37
2023-04-03T05:54:11.149Z,9.21
2023-04-03T05:57:38.320Z,9.30
2023-04-03T06:00:56.330Z,9.15
2023-04-03T06:04:50.578Z,8.74
2023-04-03T06:08:26.499Z,9.34
2023-04-03T06:11:52.822Z,9.06
2023-04-03T06:15:24.703Z,9.18
2023-04-03T06:18:50.719Z,9.18
2023-04-03T06:22:14.451Z,9.26
2023-04-03T06:25:30.246Z,9.28
2023-04-03T06:29:13.774Z,9.39
2023-04-03T06:32:32.820Z,9.07
2023-04-03T06:36:43.436Z,9.23
2023-04-03T06:40:16.096Z,9.63
2023-04-03T06:43:42.115Z,9.61
2023-04-03T06:50:40.554Z,9.78
2023-04-03T06:54:22.688Z,9.95
2023-04-03T06:57:44.601Z,9.97
2023-04-03T07:01:24.917Z,11.19
2023-04-03T07:04:54.461Z,10.97
2023-04-03T07:08:42.201Z,10.62
2023-04-03T07:12:05.308Z,11.08
2023-04-03T07:15:31.646Z,11.16
2023-04-03T07:18:53.017Z,11.35
2023-04-03T07:26:12.526Z,10.95
2023-04-03T07:29:26.955Z,11.31
2023-04-03T07:32:50.977Z,11.39
2023-04-03T07:36:49.776Z,11.57
2023-04-03T07:40:14.641Z,11.80
2023-04-03T07:44:03.561Z,12.33
2023-04-03T07:47:39.962Z,12.32
2023-04-03T07:51:15.591Z,11.98
2023-04-03T07:54:51.247Z,11.49
2023-04-03T07:58:10.072Z,12.41
2023-04-03T08:01:27.782Z,11.69
2023-04-03T08:04:55.110Z,11.67
2023-04-03T08:08:28.167Z,11.39
2023-04-03T08:11:42.803Z,11.45
2023-04-03T08:15:07.413Z,11.80
2023-04-03T08:18:30.110Z,11.71
2023-04-03T08:21:45.855Z,11.28
2023-04-03T08:25:03.935Z,11.49
2023-04-03T08:28:20.146Z,11.39
2023-04-03T08:35:09.151Z,11.24
2023-04-03T08:38:40.500Z,11.71
2023-04-03T08:42:13.411Z,12.17
2023-04-03T08:45:51.636Z,11.64
2023-04-03T08:49:25.070Z,11.99
2023-04-03T08:53:21.310Z,12.00
2023-04-03T08:56:37.175Z,11.68
2023-04-03T08:59:55.411Z,11.40
2023-04-03T09:03:28.096Z,11.51
2023-04-03T09:06:51.188Z,11.76
2023-04-03T09:10:10.886Z,12.46
2023-04-03T09:13:52.519Z,11.70
2023-04-03T09:17:26.280Z,11.60
2023-04-03T09:21:04.671Z,12.52
2023-04-03T09:24:47.906Z,12.43
2023-04-03T09:28:52.920Z,12.86
2023-04-03T09:32:53.553Z,12.57
2023-04-03T09:39:58.647Z,12.37
2023-04-03T09:43:41.828Z,12.57
2023-04-03T09:47:07.351Z,13.43
2023-04-03T09:50:30.970Z,13.75
2023-04-03T09:53:49.516Z,12.87
2023-04-03T09:57:06.851Z,13.47
2023-04-03T10:00:38.771Z,13.03
2023-04-03T10:04:19.399Z,13.75
2023-04-03T10:07:54.761Z,13.74
2023-04-03T10:11:33.760Z,13.01
2023-04-03T10:15:09.219Z,12.90
2023-04-03T10:19:13.445Z,13.95
2023-04-03T10:27:00.414Z,12.70
2023-04-03T10:30:39.246Z,13.01
2023-04-03T10:34:13.360Z,13.21
2023-04-03T10:37:39.169Z,13.49
2023-04-03T10:41:04.835Z,12.76
2023-04-03T10:44:49.575Z,12.41
2023-04-03T10:48:40.086Z,13.01
2023-04-03T10:52:09.142Z,12.59
2023-04-03T10:55:49.749Z,12.52
2023-04-03T10:59:34.597Z,12.84
2023-04-03T11:03:15.250Z,12.79
2023-04-03T11:06:44.727Z,12.30
2023-04-03T11:10:08.186Z,12.60
2023-04-03T11:13:35.279Z,12.34
2023-04-03T11:16:54.788Z,12.31
2023-04-03T11:20:15.940Z,12.38
2023-04-03T11:23:48.849Z,12.43
2023-04-03T11:27:05.079Z,12.47
2023-04-03T11:30:27.910Z,12.04
2023-04-03T11:33:54.983Z,12.21
2023-04-03T11:37:18.651Z,12.08
2023-04-03T11:40:51.014Z,12.65
2023-04-03T11:44:09.754Z,12.44
2023-04-03T11:47:53.102Z,12.38
2023-04-03T11:55:26.324Z,13.41
2023-04-03T11:58:47.862Z,13.41
2023-04-03T12:02:05.994Z,13.03
2023-04-03T12:05:39.678Z,13.43
2023-04-03T12:09:08.416Z,12.87
2023-04-03T12:12:39.177Z,13.26
2023-04-03T12:16:05.988Z,13.17
2023-04-03T12:20:02.521Z,12.99
2023-04-03T12:23:52.702Z,13.37
2023-04-03T12:31:33.182Z,13.60
2023-04-03T12:35:49.266Z,13.27
2023-04-03T12:39:45.560Z,13.62
2023-04-03T12:43:42.124Z,13.30
2023-04-03T12:47:41.787Z,13.21
2023-04-03T12:51:02.128Z,13.63
2023-04-03T12:54:32.366Z,14.14
2023-04-03T12:58:10.732Z,14.97
2023-04-03T13:01:52.428Z,13.73
2023-04-03T13:05:20.327Z,13.26
2023-04-03T13:08:43.109Z,13.53
2023-04-03T13:12:02.537Z,13.34
2023-04-03T13:15:24.823Z,13.84
2023-04-03T13:18:53.362Z,13.81
2023-04-03T13:22:37.140Z,13.70
2023-04-03T13:26:08.700Z,13.84
2023-04-03T13:29:40.843Z,13.70
2023-04-03T13:36:49.259Z,13.25
2023-04-03T13:40:18.045Z,13.47
2023-04-03T13:43:37.782Z,13.32
2023-04-03T13:51:17.501Z,13.15
2023-04-03T13:54:47.352Z,13.12
2023-04-03T14:02:15.360Z,12.68
2023-04-03T14:05:42.919Z,13.19
2023-04-03T14:09:04.068Z,13.20
2023-04-03T14:12:30.340Z,13.00
2023-04-03T14:15:47.101Z,13.03
2023-04-03T14:19:01.404Z,12.46
2023-04-03T14:22:19.008Z,12.27
2023-04-03T14:25:33.344Z,12.57
2023-04-03T14:28:47.691Z,12.88
2023-04-03T14:32:14.381Z,12.75
2023-04-03T14:35:29.399Z,13.21
2023-04-03T14:38:44.833Z,13.00
2023-04-03T14:41:59.151Z,12.85
2023-04-03T14:45:14.229Z,13.22
2023-04-03T14:48:30.402Z,13.27
2023-04-03T14:51:44.806Z,13.12
2023-04-03T14:54:59.285Z,12.66
2023-04-03T14:58:15.756Z,12.36
2023-04-03T15:01:30.367Z,12.13
2023-04-03T15:04:46.365Z,12.63
2023-04-03T15:08:01.735Z,12.82
2023-04-03T15:11:16.143Z,12.64
2023-04-03T15:14:36.776Z,12.64
2023-04-03T15:17:59.130Z,12.87
2023-04-03T15:21:15.027Z,12.80
2023-04-03T15:24:29.337Z,12.29
2023-04-03T15:27:43.580Z,12.34
2023-04-03T15:30:58.629Z,12.33
